Antananarivo, Madagascar
Current Conditions -  °F | °C
As of 6:00 PM on Monday 24 Nov 2014 (Local Time) from FMMI Reporting Station
Scattered Clouds Scattered Clouds  
Wind Chill: 22°   Ceiling: Unl
Heat Index: 22°   Visibility: 6mi
Dew Point: 20°   Wind: 10mph
Humidity: 88%   Direction: 80°E
Pressure: 30.18"   Gusts: NA
Location:  18.89°S, 47.51°E
Report Text: FMMI 241500Z 08009KT 9999 SCT017CB 22/20 Q1022 NOSIG
Loading
Personal Weather Stations






























Interactive Weather Map New forecast layout! Learn more

10-Day Weather Forecast

Advertisements
Track Severe Weather on mobile